sensor_id;sensor_type;location;lat;lon;timestamp;temperature;humidity
32097;DHT22;18610;49.916;8.284;2023-02-03T00:01:14;7.90;99.90
32097;DHT22;18610;49.916;8.284;2023-02-03T00:03:41;7.90;99.90
32097;DHT22;18610;49.916;8.284;2023-02-03T00:06:08;7.90;99.90
32097;DHT22;18610;49.916;8.284;2023-02-03T00:08:37;7.90;99.90
32097;DHT22;18610;49.916;8.284;2023-02-03T00:11:04;7.90;99.90
32097;DHT22;18610;49.916;8.284;2023-02-03T00:13:31;7.90;99.90
32097;DHT22;18610;49.916;8.284;2023-02-03T00:15:58;7.90;99.90
32097;DHT22;18610;49.916;8.284;2023-02-03T00:18:26;7.90;99.90
32097;DHT22;18610;49.916;8.284;2023-02-03T00:20:53;7.90;99.90
32097;DHT22;18610;49.916;8.284;2023-02-03T00:23:19;7.90;99.90
32097;DHT22;18610;49.916;8.284;2023-02-03T00:25:47;7.90;99.90
32097;DHT22;18610;49.916;8.284;2023-02-03T00:28:14;7.80;99.90
32097;DHT22;18610;49.916;8.284;2023-02-03T00:30:41;7.80;99.90
32097;DHT22;18610;49.916;8.284;2023-02-03T00:33:07;7.80;99.90
32097;DHT22;18610;49.916;8.284;2023-02-03T00:35:37;7.80;99.90
32097;DHT22;18610;49.916;8.284;2023-02-03T00:38:04;7.80;99.90
32097;DHT22;18610;49.916;8.284;2023-02-03T00:40:31;7.80;99.90
32097;DHT22;18610;49.916;8.284;2023-02-03T00:42:59;7.80;99.90
32097;DHT22;18610;49.916;8.284;2023-02-03T00:45:25;7.80;99.90
32097;DHT22;18610;49.916;8.284;2023-02-03T00:47:52;7.80;99.90
32097;DHT22;18610;49.916;8.284;2023-02-03T00:50:19;7.80;99.90
32097;DHT22;18610;49.916;8.284;2023-02-03T00:52:45;7.80;99.90
32097;DHT22;18610;49.916;8.284;2023-02-03T00:55:12;7.80;99.90
32097;DHT22;18610;49.916;8.284;2023-02-03T00:57:39;7.80;99.90
32097;DHT22;18610;49.916;8.284;2023-02-03T01:00:08;7.80;99.90
32097;DHT22;18610;49.916;8.284;2023-02-03T01:02:35;7.80;99.90
32097;DHT22;18610;49.916;8.284;2023-02-03T01:05:01;7.80;99.90
32097;DHT22;18610;49.916;8.284;2023-02-03T01:07:30;7.70;99.90
32097;DHT22;18610;49.916;8.284;2023-02-03T01:09:57;7.70;99.90
32097;DHT22;18610;49.916;8.284;2023-02-03T01:12:24;7.60;99.90
32097;DHT22;18610;49.916;8.284;2023-02-03T01:14:50;7.60;99.90
32097;DHT22;18610;49.916;8.284;2023-02-03T01:17:18;7.60;99.90
32097;DHT22;18610;49.916;8.284;2023-02-03T01:19:45;7.70;99.90
32097;DHT22;18610;49.916;8.284;2023-02-03T01:22:12;7.70;99.90
32097;DHT22;18610;49.916;8.284;2023-02-03T01:24:38;7.70;99.90
32097;DHT22;18610;49.916;8.284;2023-02-03T01:27:05;7.70;99.90
32097;DHT22;18610;49.916;8.284;2023-02-03T01:29:32;7.70;99.90
32097;DHT22;18610;49.916;8.284;2023-02-03T01:31:59;7.70;99.90
32097;DHT22;18610;49.916;8.284;2023-02-03T01:34:27;7.70;99.90
32097;DHT22;18610;49.916;8.284;2023-02-03T01:36:53;7.80;99.90
32097;DHT22;18610;49.916;8.284;2023-02-03T01:39:20;7.70;99.90
32097;DHT22;18610;49.916;8.284;2023-02-03T01:41:47;7.70;99.90
32097;DHT22;18610;49.916;8.284;2023-02-03T01:44:37;7.70;99.90
32097;DHT22;18610;49.916;8.284;2023-02-03T01:47:12;7.70;99.90
32097;DHT22;18610;49.916;8.284;2023-02-03T01:49:45;7.70;99.90
32097;DHT22;18610;49.916;8.284;2023-02-03T01:52:12;7.70;99.90
32097;DHT22;18610;49.916;8.284;2023-02-03T01:54:41;7.80;99.90
32097;DHT22;18610;49.916;8.284;2023-02-03T01:57:14;7.80;99.90
32097;DHT22;18610;49.916;8.284;2023-02-03T01:59:42;7.80;99.90
32097;DHT22;18610;49.916;8.284;2023-02-03T02:02:10;7.70;99.90
32097;DHT22;18610;49.916;8.284;2023-02-03T02:04:47;7.70;99.90
32097;DHT22;18610;49.916;8.284;2023-02-03T02:07:16;7.70;99.90
32097;DHT22;18610;49.916;8.284;2023-02-03T02:09:44;7.80;99.90
32097;DHT22;18610;49.916;8.284;2023-02-03T02:12:11;7.80;99.90
32097;DHT22;18610;49.916;8.284;2023-02-03T02:14:38;7.80;99.90
32097;DHT22;18610;49.916;8.284;2023-02-03T02:17:12;7.80;99.90
32097;DHT22;18610;49.916;8.284;2023-02-03T02:20:23;7.70;99.90
32097;DHT22;18610;49.916;8.284;2023-02-03T02:32:19;7.80;99.90
32097;DHT22;18610;49.916;8.284;2023-02-03T02:34:58;7.80;99.90
32097;DHT22;18610;49.916;8.284;2023-02-03T02:37:34;7.80;99.90
32097;DHT22;18610;49.916;8.284;2023-02-03T02:40:11;7.80;99.90
32097;DHT22;18610;49.916;8.284;2023-02-03T02:42:50;7.80;99.90
32097;DHT22;18610;49.916;8.284;2023-02-03T02:45:24;7.70;99.90
32097;DHT22;18610;49.916;8.284;2023-02-03T02:47:59;7.80;99.90
32097;DHT22;18610;49.916;8.284;2023-02-03T02:50:30;7.70;99.90
32097;DHT22;18610;49.916;8.284;2023-02-03T02:52:59;7.70;99.90
32097;DHT22;18610;49.916;8.284;2023-02-03T02:55:28;7.70;99.90
32097;DHT22;18610;49.916;8.284;2023-02-03T02:58:01;7.80;99.90
32097;DHT22;18610;49.916;8.284;2023-02-03T03:00:29;7.80;99.90
32097;DHT22;18610;49.916;8.284;2023-02-03T03:03:10;7.80;99.90
32097;DHT22;18610;49.916;8.284;2023-02-03T03:05:38;7.80;99.90
32097;DHT22;18610;49.916;8.284;2023-02-03T03:08:06;7.80;99.90
32097;DHT22;18610;49.916;8.284;2023-02-03T03:10:34;7.80;99.90
32097;DHT22;18610;49.916;8.284;2023-02-03T03:13:04;7.80;99.90
32097;DHT22;18610;49.916;8.284;2023-02-03T03:15:34;7.80;99.90
32097;DHT22;18610;49.916;8.284;2023-02-03T03:18:06;7.80;99.90
32097;DHT22;18610;49.916;8.284;2023-02-03T03:20:35;7.80;99.90
32097;DHT22;18610;49.916;8.284;2023-02-03T03:23:06;7.80;99.90
32097;DHT22;18610;49.916;8.284;2023-02-03T03:25:37;7.80;99.90
32097;DHT22;18610;49.916;8.284;2023-02-03T03:28:12;7.80;99.90
32097;DHT22;18610;49.916;8.284;2023-02-03T03:30:41;7.80;99.90
32097;DHT22;18610;49.916;8.284;2023-02-03T03:33:09;7.80;99.90
32097;DHT22;18610;49.916;8.284;2023-02-03T03:35:41;7.70;99.90
32097;DHT22;18610;49.916;8.284;2023-02-03T03:38:15;7.70;99.90
32097;DHT22;18610;49.916;8.284;2023-02-03T03:40:48;7.70;99.90
32097;DHT22;18610;49.916;8.284;2023-02-03T03:43:19;7.70;99.90
32097;DHT22;18610;49.916;8.284;2023-02-03T03:45:52;7.80;99.90
32097;DHT22;18610;49.916;8.284;2023-02-03T03:48:24;7.80;99.90
32097;DHT22;18610;49.916;8.284;2023-02-03T03:50:57;7.80;99.90
32097;DHT22;18610;49.916;8.284;2023-02-03T03:53:25;7.80;99.90
32097;DHT22;18610;49.916;8.284;2023-02-03T03:55:54;7.80;99.90
32097;DHT22;18610;49.916;8.284;2023-02-03T03:58:25;7.80;99.90
32097;DHT22;18610;49.916;8.284;2023-02-03T04:00:55;7.80;99.90
32097;DHT22;18610;49.916;8.284;2023-02-03T04:03:28;7.80;99.90
32097;DHT22;18610;49.916;8.284;2023-02-03T04:05:57;7.80;99.90
32097;DHT22;18610;49.916;8.284;2023-02-03T04:08:24;7.80;99.90
32097;DHT22;18610;49.916;8.284;2023-02-03T04:10:50;7.80;99.90
32097;DHT22;18610;49.916;8.284;2023-02-03T04:13:17;7.80;99.90
32097;DHT22;18610;49.916;8.284;2023-02-03T04:15:45;7.80;99.90
32097;DHT22;18610;49.916;8.284;2023-02-03T04:18:13;7.80;99.90
32097;DHT22;18610;49.916;8.284;2023-02-03T04:20:41;7.80;99.90
32097;DHT22;18610;49.916;8.284;2023-02-03T04:23:08;7.80;99.90
32097;DHT22;18610;49.916;8.284;2023-02-03T04:25:35;7.80;99.90
32097;DHT22;18610;49.916;8.284;2023-02-03T04:28:02;7.80;99.90
32097;DHT22;18610;49.916;8.284;2023-02-03T04:30:30;7.80;99.90
32097;DHT22;18610;49.916;8.284;2023-02-03T04:32:57;7.90;99.90
32097;DHT22;18610;49.916;8.284;2023-02-03T04:35:24;7.80;99.90
32097;DHT22;18610;49.916;8.284;2023-02-03T04:37:52;7.90;99.90
32097;DHT22;18610;49.916;8.284;2023-02-03T04:40:19;7.90;99.90
32097;DHT22;18610;49.916;8.284;2023-02-03T04:42:46;7.90;99.90
32097;DHT22;18610;49.916;8.284;2023-02-03T04:45:12;7.90;99.90
32097;DHT22;18610;49.916;8.284;2023-02-03T04:47:39;7.90;99.90
32097;DHT22;18610;49.916;8.284;2023-02-03T04:50:06;7.90;99.90
32097;DHT22;18610;49.916;8.284;2023-02-03T04:52:33;7.90;99.90
32097;DHT22;18610;49.916;8.284;2023-02-03T04:55:01;7.80;99.90
32097;DHT22;18610;49.916;8.284;2023-02-03T04:57:28;7.80;99.90
32097;DHT22;18610;49.916;8.284;2023-02-03T04:59:55;7.80;99.90
32097;DHT22;18610;49.916;8.284;2023-02-03T05:02:21;7.80;99.90
32097;DHT22;18610;49.916;8.284;2023-02-03T05:04:48;7.80;99.90
32097;DHT22;18610;49.916;8.284;2023-02-03T05:07:15;7.80;99.90
32097;DHT22;18610;49.916;8.284;2023-02-03T05:09:41;7.80;99.90
32097;DHT22;18610;49.916;8.284;2023-02-03T05:12:09;7.80;99.90
32097;DHT22;18610;49.916;8.284;2023-02-03T05:14:36;7.80;99.90
32097;DHT22;18610;49.916;8.284;2023-02-03T05:17:03;7.80;99.90
32097;DHT22;18610;49.916;8.284;2023-02-03T05:19:29;7.70;99.90
32097;DHT22;18610;49.916;8.284;2023-02-03T05:21:56;7.70;99.90
32097;DHT22;18610;49.916;8.284;2023-02-03T05:24:22;7.70;99.90
32097;DHT22;18610;49.916;8.284;2023-02-03T05:26:49;7.60;99.90
32097;DHT22;18610;49.916;8.284;2023-02-03T05:29:17;7.60;99.90
32097;DHT22;18610;49.916;8.284;2023-02-03T05:31:44;7.60;99.90
32097;DHT22;18610;49.916;8.284;2023-02-03T05:34:10;7.60;99.90
32097;DHT22;18610;49.916;8.284;2023-02-03T05:36:37;7.50;99.90
32097;DHT22;18610;49.916;8.284;2023-02-03T05:39:04;7.50;99.90
32097;DHT22;18610;49.916;8.284;2023-02-03T05:41:30;7.50;99.90
32097;DHT22;18610;49.916;8.284;2023-02-03T05:44:14;7.50;99.90
32097;DHT22;18610;49.916;8.284;2023-02-03T05:46:43;7.60;99.90
32097;DHT22;18610;49.916;8.284;2023-02-03T05:49:10;7.60;99.90
32097;DHT22;18610;49.916;8.284;2023-02-03T05:51:37;7.60;99.90
32097;DHT22;18610;49.916;8.284;2023-02-03T05:54:04;7.60;99.90
32097;DHT22;18610;49.916;8.284;2023-02-03T05:56:31;7.60;99.90
32097;DHT22;18610;49.916;8.284;2023-02-03T05:58:58;7.60;99.90
32097;DHT22;18610;49.916;8.284;2023-02-03T06:01:24;7.60;99.90
32097;DHT22;18610;49.916;8.284;2023-02-03T06:03:52;7.60;99.90
32097;DHT22;18610;49.916;8.284;2023-02-03T06:06:19;7.60;99.90
32097;DHT22;18610;49.916;8.284;2023-02-03T06:08:46;7.70;99.90
32097;DHT22;18610;49.916;8.284;2023-02-03T06:11:12;7.70;99.90
32097;DHT22;18610;49.916;8.284;2023-02-03T06:13:39;7.70;99.90
32097;DHT22;18610;49.916;8.284;2023-02-03T06:16:06;7.70;99.90
32097;DHT22;18610;49.916;8.284;2023-02-03T06:18:32;7.70;99.90
32097;DHT22;18610;49.916;8.284;2023-02-03T06:21:01;7.70;99.90
32097;DHT22;18610;49.916;8.284;2023-02-03T06:23:27;7.70;99.90
32097;DHT22;18610;49.916;8.284;2023-02-03T06:25:55;7.70;99.90
32097;DHT22;18610;49.916;8.284;2023-02-03T06:28:24;7.80;99.90
32097;DHT22;18610;49.916;8.284;2023-02-03T06:30:51;7.80;99.90
32097;DHT22;18610;49.916;8.284;2023-02-03T06:33:18;7.80;99.90
32097;DHT22;18610;49.916;8.284;2023-02-03T06:35:45;7.80;99.90
32097;DHT22;18610;49.916;8.284;2023-02-03T06:38:13;7.80;99.90
32097;DHT22;18610;49.916;8.284;2023-02-03T06:40:40;7.80;99.90
32097;DHT22;18610;49.916;8.284;2023-02-03T06:43:07;7.80;99.90
32097;DHT22;18610;49.916;8.284;2023-02-03T06:45:33;7.80;99.90
32097;DHT22;18610;49.916;8.284;2023-02-03T06:48:00;7.80;99.90
32097;DHT22;18610;49.916;8.284;2023-02-03T06:50:27;7.80;99.90
32097;DHT22;18610;49.916;8.284;2023-02-03T06:52:53;7.80;99.90
32097;DHT22;18610;49.916;8.284;2023-02-03T06:55:21;7.80;99.90
32097;DHT22;18610;49.916;8.284;2023-02-03T06:57:48;7.80;99.90
32097;DHT22;18610;49.916;8.284;2023-02-03T07:00:16;7.80;99.90
32097;DHT22;18610;49.916;8.284;2023-02-03T07:02:43;7.80;99.90
32097;DHT22;18610;49.916;8.284;2023-02-03T07:05:10;7.80;99.90
32097;DHT22;18610;49.916;8.284;2023-02-03T07:07:36;7.80;99.90
32097;DHT22;18610;49.916;8.284;2023-02-03T07:10:04;7.80;99.90
32097;DHT22;18610;49.916;8.284;2023-02-03T07:12:32;7.80;99.90
32097;DHT22;18610;49.916;8.284;2023-02-03T07:15:01;7.80;99.90
32097;DHT22;18610;49.916;8.284;2023-02-03T07:17:27;7.80;99.90
32097;DHT22;18610;49.916;8.284;2023-02-03T07:19:54;7.90;99.90
32097;DHT22;18610;49.916;8.284;2023-02-03T07:22:21;7.90;99.90
32097;DHT22;18610;49.916;8.284;2023-02-03T07:24:47;7.90;99.90
32097;DHT22;18610;49.916;8.284;2023-02-03T07:27:14;7.90;99.90
32097;DHT22;18610;49.916;8.284;2023-02-03T07:29:42;7.90;99.90
32097;DHT22;18610;49.916;8.284;2023-02-03T07:32:08;7.90;99.90
32097;DHT22;18610;49.916;8.284;2023-02-03T07:34:35;7.90;99.90
32097;DHT22;18610;49.916;8.284;2023-02-03T07:37:02;8.00;99.90
32097;DHT22;18610;49.916;8.284;2023-02-03T07:39:28;8.00;99.90
32097;DHT22;18610;49.916;8.284;2023-02-03T07:41:55;8.00;99.90
32097;DHT22;18610;49.916;8.284;2023-02-03T07:44:22;8.00;99.90
32097;DHT22;18610;49.916;8.284;2023-02-03T07:46:50;8.00;99.90
32097;DHT22;18610;49.916;8.284;2023-02-03T07:49:17;8.00;99.90
32097;DHT22;18610;49.916;8.284;2023-02-03T07:51:44;8.10;99.90
32097;DHT22;18610;49.916;8.284;2023-02-03T07:54:10;8.10;99.90
32097;DHT22;18610;49.916;8.284;2023-02-03T07:56:37;8.20;99.90
32097;DHT22;18610;49.916;8.284;2023-02-03T07:59:04;8.20;99.90
32097;DHT22;18610;49.916;8.284;2023-02-03T08:01:30;8.20;99.90
32097;DHT22;18610;49.916;8.284;2023-02-03T08:04:00;8.20;99.90
32097;DHT22;18610;49.916;8.284;2023-02-03T08:06:29;8.20;99.90
32097;DHT22;18610;49.916;8.284;2023-02-03T08:08:56;8.20;99.90
32097;DHT22;18610;49.916;8.284;2023-02-03T08:11:23;8.20;99.90
32097;DHT22;18610;49.916;8.284;2023-02-03T08:13:50;8.30;99.90
32097;DHT22;18610;49.916;8.284;2023-02-03T08:16:16;8.30;99.90
32097;DHT22;18610;49.916;8.284;2023-02-03T08:18:43;8.30;99.90
32097;DHT22;18610;49.916;8.284;2023-02-03T08:21:11;8.40;99.90
32097;DHT22;18610;49.916;8.284;2023-02-03T08:23:38;8.30;99.90
32097;DHT22;18610;49.916;8.284;2023-02-03T08:26:04;8.30;99.90
32097;DHT22;18610;49.916;8.284;2023-02-03T08:28:31;8.30;99.90
32097;DHT22;18610;49.916;8.284;2023-02-03T08:30:58;8.40;99.90
32097;DHT22;18610;49.916;8.284;2023-02-03T08:33:24;8.40;99.90
32097;DHT22;18610;49.916;8.284;2023-02-03T08:35:52;8.50;99.90
32097;DHT22;18610;49.916;8.284;2023-02-03T08:38:20;8.50;99.90
32097;DHT22;18610;49.916;8.284;2023-02-03T08:40:46;8.50;99.90
32097;DHT22;18610;49.916;8.284;2023-02-03T08:43:13;8.50;99.90
32097;DHT22;18610;49.916;8.284;2023-02-03T08:45:40;8.50;99.90
32097;DHT22;18610;49.916;8.284;2023-02-03T08:48:06;8.60;99.90
32097;DHT22;18610;49.916;8.284;2023-02-03T08:50:33;8.60;99.90
32097;DHT22;18610;49.916;8.284;2023-02-03T08:53:00;8.60;99.90
32097;DHT22;18610;49.916;8.284;2023-02-03T08:55:28;8.60;99.90
32097;DHT22;18610;49.916;8.284;2023-02-03T08:57:54;8.70;99.90
32097;DHT22;18610;49.916;8.284;2023-02-03T09:00:21;8.70;99.90
32097;DHT22;18610;49.916;8.284;2023-02-03T09:02:48;8.80;99.90
32097;DHT22;18610;49.916;8.284;2023-02-03T09:05:15;8.80;99.90
32097;DHT22;18610;49.916;8.284;2023-02-03T09:07:43;8.80;99.90
32097;DHT22;18610;49.916;8.284;2023-02-03T09:10:10;8.90;99.90
32097;DHT22;18610;49.916;8.284;2023-02-03T09:12:38;8.90;99.90
32097;DHT22;18610;49.916;8.284;2023-02-03T09:15:05;9.00;99.90
32097;DHT22;18610;49.916;8.284;2023-02-03T09:17:32;9.00;99.90
32097;DHT22;18610;49.916;8.284;2023-02-03T09:19:58;9.10;99.90
32097;DHT22;18610;49.916;8.284;2023-02-03T09:22:25;9.10;99.90
32097;DHT22;18610;49.916;8.284;2023-02-03T09:24:52;9.10;99.90
32097;DHT22;18610;49.916;8.284;2023-02-03T09:27:18;9.10;99.90
32097;DHT22;18610;49.916;8.284;2023-02-03T09:29:46;9.10;99.90
32097;DHT22;18610;49.916;8.284;2023-02-03T09:32:13;9.20;99.90
32097;DHT22;18610;49.916;8.284;2023-02-03T09:34:40;9.20;99.90
32097;DHT22;18610;49.916;8.284;2023-02-03T09:37:07;9.20;99.90
32097;DHT22;18610;49.916;8.284;2023-02-03T09:39:33;9.20;99.90
32097;DHT22;18610;49.916;8.284;2023-02-03T09:42:25;9.20;99.90
32097;DHT22;18610;49.916;8.284;2023-02-03T09:45:01;9.20;99.90
32097;DHT22;18610;49.916;8.284;2023-02-03T09:47:34;9.20;99.90
32097;DHT22;18610;49.916;8.284;2023-02-03T09:50:03;9.20;99.90
32097;DHT22;18610;49.916;8.284;2023-02-03T09:52:33;9.30;99.90
32097;DHT22;18610;49.916;8.284;2023-02-03T09:55:04;9.30;99.90
32097;DHT22;18610;49.916;8.284;2023-02-03T09:57:39;9.30;99.90
32097;DHT22;18610;49.916;8.284;2023-02-03T10:00:18;9.30;99.90
32097;DHT22;18610;49.916;8.284;2023-02-03T10:02:54;9.30;99.90
32097;DHT22;18610;49.916;8.284;2023-02-03T10:05:27;9.40;99.90
32097;DHT22;18610;49.916;8.284;2023-02-03T10:08:01;9.30;99.90
32097;DHT22;18610;49.916;8.284;2023-02-03T10:10:37;9.40;99.90
32097;DHT22;18610;49.916;8.284;2023-02-03T10:13:14;9.40;99.90
32097;DHT22;18610;49.916;8.284;2023-02-03T10:16:03;9.40;99.90
32097;DHT22;18610;49.916;8.284;2023-02-03T10:18:38;9.50;99.90
32097;DHT22;18610;49.916;8.284;2023-02-03T10:21:13;9.50;99.90
32097;DHT22;18610;49.916;8.284;2023-02-03T10:23:43;9.60;99.90
32097;DHT22;18610;49.916;8.284;2023-02-03T10:26:14;9.50;99.90
32097;DHT22;18610;49.916;8.284;2023-02-03T10:28:47;9.50;99.90
32097;DHT22;18610;49.916;8.284;2023-02-03T10:31:19;9.50;99.90
32097;DHT22;18610;49.916;8.284;2023-02-03T10:33:52;9.50;99.90
32097;DHT22;18610;49.916;8.284;2023-02-03T10:36:21;9.50;99.90
32097;DHT22;18610;49.916;8.284;2023-02-03T10:38:57;9.50;99.90
32097;DHT22;18610;49.916;8.284;2023-02-03T10:41:27;9.50;99.90
32097;DHT22;18610;49.916;8.284;2023-02-03T10:43:55;9.60;99.90
32097;DHT22;18610;49.916;8.284;2023-02-03T10:46:28;9.60;99.90
32097;DHT22;18610;49.916;8.284;2023-02-03T10:48:55;9.60;99.90
32097;DHT22;18610;49.916;8.284;2023-02-03T10:51:24;9.70;99.90
32097;DHT22;18610;49.916;8.284;2023-02-03T10:53:52;9.70;99.90
32097;DHT22;18610;49.916;8.284;2023-02-03T10:56:21;9.70;99.90
32097;DHT22;18610;49.916;8.284;2023-02-03T10:58:51;9.70;99.90
32097;DHT22;18610;49.916;8.284;2023-02-03T11:01:20;9.80;99.90
32097;DHT22;18610;49.916;8.284;2023-02-03T11:03:57;9.80;99.90
32097;DHT22;18610;49.916;8.284;2023-02-03T11:06:24;9.80;99.90
32097;DHT22;18610;49.916;8.284;2023-02-03T11:08:51;9.80;99.90
32097;DHT22;18610;49.916;8.284;2023-02-03T11:11:21;9.70;99.90
32097;DHT22;18610;49.916;8.284;2023-02-03T11:13:52;9.70;99.90
32097;DHT22;18610;49.916;8.284;2023-02-03T11:16:19;9.70;99.90
32097;DHT22;18610;49.916;8.284;2023-02-03T11:18:51;9.70;99.90
32097;DHT22;18610;49.916;8.284;2023-02-03T11:21:21;9.80;99.90
32097;DHT22;18610;49.916;8.284;2023-02-03T11:24:04;9.80;99.90
32097;DHT22;18610;49.916;8.284;2023-02-03T11:26:34;9.70;99.90
32097;DHT22;18610;49.916;8.284;2023-02-03T11:29:03;9.70;99.90
32097;DHT22;18610;49.916;8.284;2023-02-03T11:31:34;9.80;99.90
32097;DHT22;18610;49.916;8.284;2023-02-03T11:34:03;9.80;99.90
32097;DHT22;18610;49.916;8.284;2023-02-03T11:36:34;9.70;99.90
32097;DHT22;18610;49.916;8.284;2023-02-03T11:39:17;9.80;99.90
32097;DHT22;18610;49.916;8.284;2023-02-03T11:41:45;9.90;99.90
32097;DHT22;18610;49.916;8.284;2023-02-03T11:44:20;9.90;99.90
32097;DHT22;18610;49.916;8.284;2023-02-03T11:46:51;9.90;99.90
32097;DHT22;18610;49.916;8.284;2023-02-03T11:49:37;9.90;99.90
32097;DHT22;18610;49.916;8.284;2023-02-03T11:52:29;9.90;99.90
32097;DHT22;18610;49.916;8.284;2023-02-03T11:55:05;9.90;99.90
32097;DHT22;18610;49.916;8.284;2023-02-03T11:57:40;9.80;99.90
32097;DHT22;18610;49.916;8.284;2023-02-03T12:00:19;9.80;99.90
32097;DHT22;18610;49.916;8.284;2023-02-03T12:03:14;9.80;99.90
32097;DHT22;18610;49.916;8.284;2023-02-03T12:06:13;9.80;99.90
32097;DHT22;18610;49.916;8.284;2023-02-03T12:09:02;9.70;99.90
32097;DHT22;18610;49.916;8.284;2023-02-03T12:11:45;9.80;99.90
32097;DHT22;18610;49.916;8.284;2023-02-03T12:14:23;9.90;99.90
32097;DHT22;18610;49.916;8.284;2023-02-03T12:17:09;9.90;99.90
32097;DHT22;18610;49.916;8.284;2023-02-03T12:19:51;9.90;99.90
32097;DHT22;18610;49.916;8.284;2023-02-03T12:22:28;9.90;99.90
32097;DHT22;18610;49.916;8.284;2023-02-03T12:25:03;9.90;99.90
32097;DHT22;18610;49.916;8.284;2023-02-03T12:27:40;9.90;99.90
32097;DHT22;18610;49.916;8.284;2023-02-03T12:30:11;9.90;99.90
32097;DHT22;18610;49.916;8.284;2023-02-03T12:32:43;10.00;99.90
32097;DHT22;18610;49.916;8.284;2023-02-03T12:35:16;10.00;99.90
32097;DHT22;18610;49.916;8.284;2023-02-03T12:37:49;10.00;99.90
32097;DHT22;18610;49.916;8.284;2023-02-03T12:40:28;10.00;99.90
32097;DHT22;18610;49.916;8.284;2023-02-03T12:43:03;10.10;99.90
32097;DHT22;18610;49.916;8.284;2023-02-03T12:45:35;10.10;99.90
32097;DHT22;18610;49.916;8.284;2023-02-03T12:48:06;10.10;99.90
32097;DHT22;18610;49.916;8.284;2023-02-03T12:50:39;10.10;99.90
32097;DHT22;18610;49.916;8.284;2023-02-03T12:53:13;10.20;99.90
32097;DHT22;18610;49.916;8.284;2023-02-03T12:55:44;10.20;99.90
32097;DHT22;18610;49.916;8.284;2023-02-03T12:58:17;10.20;99.90
32097;DHT22;18610;49.916;8.284;2023-02-03T13:00:48;10.20;99.90
32097;DHT22;18610;49.916;8.284;2023-02-03T13:03:22;10.20;99.90
32097;DHT22;18610;49.916;8.284;2023-02-03T13:05:56;10.20;99.90
32097;DHT22;18610;49.916;8.284;2023-02-03T13:08:27;10.20;99.90
32097;DHT22;18610;49.916;8.284;2023-02-03T13:11:02;10.20;99.90
32097;DHT22;18610;49.916;8.284;2023-02-03T13:13:38;10.20;99.90
32097;DHT22;18610;49.916;8.284;2023-02-03T13:16:07;10.10;99.90
32097;DHT22;18610;49.916;8.284;2023-02-03T13:18:37;10.20;99.90
32097;DHT22;18610;49.916;8.284;2023-02-03T13:21:04;10.10;99.90
32097;DHT22;18610;49.916;8.284;2023-02-03T13:23:31;10.10;99.90
32097;DHT22;18610;49.916;8.284;2023-02-03T13:26:17;10.10;99.90
32097;DHT22;18610;49.916;8.284;2023-02-03T13:28:58;10.10;99.90
32097;DHT22;18610;49.916;8.284;2023-02-03T13:31:38;10.10;99.90
32097;DHT22;18610;49.916;8.284;2023-02-03T13:34:27;10.10;99.90
32097;DHT22;18610;49.916;8.284;2023-02-03T13:40:10;10.10;99.90
32097;DHT22;18610;49.916;8.284;2023-02-03T13:42:44;10.10;99.90
32097;DHT22;18610;49.916;8.284;2023-02-03T13:45:17;10.10;99.90
32097;DHT22;18610;49.916;8.284;2023-02-03T13:47:49;10.10;99.90
32097;DHT22;18610;49.916;8.284;2023-02-03T13:50:21;10.10;99.90
32097;DHT22;18610;49.916;8.284;2023-02-03T13:52:54;10.10;99.90
32097;DHT22;18610;49.916;8.284;2023-02-03T13:55:29;10.10;99.90
32097;DHT22;18610;49.916;8.284;2023-02-03T13:57:57;10.10;99.90
32097;DHT22;18610;49.916;8.284;2023-02-03T14:00:57;10.10;99.90
32097;DHT22;18610;49.916;8.284;2023-02-03T14:03:40;10.20;99.90
32097;DHT22;18610;49.916;8.284;2023-02-03T14:08:52;10.10;99.90
32097;DHT22;18610;49.916;8.284;2023-02-03T14:11:43;10.00;99.90
32097;DHT22;18610;49.916;8.284;2023-02-03T14:20:44;10.00;99.90
32097;DHT22;18610;49.916;8.284;2023-02-03T14:23:17;9.90;99.90
32097;DHT22;18610;49.916;8.284;2023-02-03T14:25:48;9.90;99.90
32097;DHT22;18610;49.916;8.284;2023-02-03T14:28:19;9.90;99.90
32097;DHT22;18610;49.916;8.284;2023-02-03T14:31:05;9.90;99.90
32097;DHT22;18610;49.916;8.284;2023-02-03T14:33:54;9.90;99.90
32097;DHT22;18610;49.916;8.284;2023-02-03T14:36:36;9.90;99.90
32097;DHT22;18610;49.916;8.284;2023-02-03T14:42:15;9.90;99.90
32097;DHT22;18610;49.916;8.284;2023-02-03T14:44:52;9.80;99.90
32097;DHT22;18610;49.916;8.284;2023-02-03T14:47:28;9.80;99.90
32097;DHT22;18610;49.916;8.284;2023-02-03T14:50:11;9.80;99.90
32097;DHT22;18610;49.916;8.284;2023-02-03T14:52:59;9.80;99.90
32097;DHT22;18610;49.916;8.284;2023-02-03T14:55:37;9.80;99.90
32097;DHT22;18610;49.916;8.284;2023-02-03T14:58:17;9.80;99.90
32097;DHT22;18610;49.916;8.284;2023-02-03T15:00:46;9.80;99.90
32097;DHT22;18610;49.916;8.284;2023-02-03T15:03:22;9.80;99.90
32097;DHT22;18610;49.916;8.284;2023-02-03T15:05:52;9.80;99.90
32097;DHT22;18610;49.916;8.284;2023-02-03T15:08:36;9.70;99.90
32097;DHT22;18610;49.916;8.284;2023-02-03T15:11:22;9.80;99.90
32097;DHT22;18610;49.916;8.284;2023-02-03T15:13:49;9.80;99.90
32097;DHT22;18610;49.916;8.284;2023-02-03T15:16:19;9.70;99.90
32097;DHT22;18610;49.916;8.284;2023-02-03T15:18:54;9.80;99.90
32097;DHT22;18610;49.916;8.284;2023-02-03T15:21:21;9.70;99.90
32097;DHT22;18610;49.916;8.284;2023-02-03T15:23:50;9.80;99.90
32097;DHT22;18610;49.916;8.284;2023-02-03T15:26:18;9.80;99.90
32097;DHT22;18610;49.916;8.284;2023-02-03T15:28:55;9.80;99.90
32097;DHT22;18610;49.916;8.284;2023-02-03T15:31:26;9.80;99.90
32097;DHT22;18610;49.916;8.284;2023-02-03T15:33:57;9.80;99.90
32097;DHT22;18610;49.916;8.284;2023-02-03T15:36:30;9.80;99.90
32097;DHT22;18610;49.916;8.284;2023-02-03T15:39:07;9.80;99.90
32097;DHT22;18610;49.916;8.284;2023-02-03T15:41:37;9.80;99.90
32097;DHT22;18610;49.916;8.284;2023-02-03T15:44:07;9.70;99.90
32097;DHT22;18610;49.916;8.284;2023-02-03T15:46:38;9.70;99.90
32097;DHT22;18610;49.916;8.284;2023-02-03T15:49:10;9.70;99.90
32097;DHT22;18610;49.916;8.284;2023-02-03T15:51:41;9.70;99.90
32097;DHT22;18610;49.916;8.284;2023-02-03T15:54:15;9.70;99.90
32097;DHT22;18610;49.916;8.284;2023-02-03T15:56:45;9.70;99.90
32097;DHT22;18610;49.916;8.284;2023-02-03T15:59:21;9.70;99.90
32097;DHT22;18610;49.916;8.284;2023-02-03T16:01:49;9.70;99.90
32097;DHT22;18610;49.916;8.284;2023-02-03T16:04:16;9.80;99.90
32097;DHT22;18610;49.916;8.284;2023-02-03T16:06:45;9.70;99.90
32097;DHT22;18610;49.916;8.284;2023-02-03T16:09:29;9.70;99.90
32097;DHT22;18610;49.916;8.284;2023-02-03T16:12:15;9.70;99.90
32097;DHT22;18610;49.916;8.284;2023-02-03T16:14:44;9.70;99.90
32097;DHT22;18610;49.916;8.284;2023-02-03T16:17:26;9.70;99.90
32097;DHT22;18610;49.916;8.284;2023-02-03T16:20:21;9.70;99.90
32097;DHT22;18610;49.916;8.284;2023-02-03T16:23:04;9.70;99.90
32097;DHT22;18610;49.916;8.284;2023-02-03T16:25:34;9.70;99.90
32097;DHT22;18610;49.916;8.284;2023-02-03T16:28:01;9.70;99.90
32097;DHT22;18610;49.916;8.284;2023-02-03T16:30:56;9.70;99.90
32097;DHT22;18610;49.916;8.284;2023-02-03T16:33:44;9.70;99.90